createdAt,value
2022-08-29T00:00:18.057Z,20.76
2022-08-29T00:03:02.036Z,20.67
2022-08-29T00:05:39.863Z,20.63
2022-08-29T00:08:08.488Z,20.60
2022-08-29T00:10:39.414Z,20.56
2022-08-29T00:13:09.062Z,20.51
2022-08-29T00:15:44.463Z,20.45
2022-08-29T00:18:16.538Z,20.43
2022-08-29T00:20:45.106Z,20.41
2022-08-29T00:23:13.439Z,20.44
2022-08-29T00:25:41.489Z,20.36
2022-08-29T00:28:09.505Z,20.23
2022-08-29T00:30:40.714Z,20.17
2022-08-29T00:33:09.346Z,20.19
2022-08-29T00:35:39.237Z,20.24
2022-08-29T00:38:11.891Z,20.25
2022-08-29T00:40:53.846Z,20.24
2022-08-29T00:43:25.140Z,20.13
2022-08-29T00:46:40.390Z,20.13
2022-08-29T00:49:29.288Z,20.13
2022-08-29T00:51:59.745Z,20.12
2022-08-29T00:54:28.238Z,20.13
2022-08-29T00:56:56.845Z,20.16
2022-08-29T00:59:29.009Z,20.20
2022-08-29T01:01:57.150Z,20.28
2022-08-29T01:04:25.190Z,20.29
2022-08-29T01:06:54.441Z,20.26
2022-08-29T01:09:24.338Z,20.18
2022-08-29T01:12:11.769Z,20.16
2022-08-29T01:15:02.736Z,20.18
2022-08-29T01:17:35.388Z,20.12
2022-08-29T01:20:19.595Z,20.12
2022-08-29T01:23:16.285Z,20.09
2022-08-29T01:25:51.148Z,20.04
2022-08-29T01:28:21.570Z,19.96
2022-08-29T01:31:11.698Z,19.86
2022-08-29T01:33:57.105Z,19.83
2022-08-29T01:36:32.500Z,19.83
2022-08-29T01:39:01.039Z,19.81
2022-08-29T01:41:29.309Z,19.83
2022-08-29T01:43:57.496Z,19.83
2022-08-29T01:46:32.358Z,19.79
2022-08-29T01:49:06.037Z,19.82
2022-08-29T01:51:35.415Z,19.78
2022-08-29T01:54:06.286Z,19.72
2022-08-29T01:56:38.793Z,19.73
2022-08-29T01:59:11.054Z,19.67
2022-08-29T02:01:42.417Z,19.62
2022-08-29T02:04:10.469Z,19.56
2022-08-29T02:06:38.498Z,19.55
2022-08-29T02:09:07.921Z,19.54
2022-08-29T02:11:40.108Z,19.52
2022-08-29T02:14:16.170Z,19.50
2022-08-29T02:16:48.636Z,19.50
2022-08-29T02:19:16.935Z,19.50
2022-08-29T02:21:45.044Z,19.48
2022-08-29T02:24:25.358Z,19.47
2022-08-29T02:26:55.485Z,19.50
2022-08-29T02:29:25.063Z,19.60
2022-08-29T02:31:53.247Z,19.63
2022-08-29T02:34:21.464Z,19.66
2022-08-29T02:36:49.462Z,19.72
2022-08-29T02:39:18.348Z,19.80
2022-08-29T02:41:46.330Z,19.81
2022-08-29T02:44:14.254Z,19.83
2022-08-29T02:46:42.233Z,19.83
2022-08-29T02:49:10.185Z,19.85
2022-08-29T02:51:38.610Z,19.90
2022-08-29T02:54:06.898Z,19.98
2022-08-29T02:56:35.192Z,20.01
2022-08-29T02:59:03.308Z,19.99
2022-08-29T03:01:31.464Z,20.03
2022-08-29T03:03:59.571Z,20.05
2022-08-29T03:06:27.482Z,19.98
2022-08-29T03:08:55.718Z,19.99
2022-08-29T03:11:24.530Z,20.03
2022-08-29T03:13:52.374Z,20.06
2022-08-29T03:16:27.260Z,20.11
2022-08-29T03:18:55.718Z,20.16
2022-08-29T03:21:26.842Z,20.14
2022-08-29T03:23:56.611Z,20.13
2022-08-29T03:26:25.512Z,20.11
2022-08-29T03:28:53.538Z,20.12
2022-08-29T03:31:22.329Z,20.15
2022-08-29T03:33:50.255Z,20.13
2022-08-29T03:36:19.274Z,20.14
2022-08-29T03:38:50.391Z,20.15
2022-08-29T03:41:24.063Z,20.19
2022-08-29T03:43:52.109Z,20.23
2022-08-29T03:46:20.159Z,20.22
2022-08-29T03:48:51.756Z,20.25
2022-08-29T03:51:22.077Z,20.31
2022-08-29T03:53:50.019Z,20.33
2022-08-29T03:56:18.878Z,20.36
2022-08-29T03:58:53.362Z,20.38
2022-08-29T04:01:24.930Z,20.39
2022-08-29T04:03:54.955Z,20.37
2022-08-29T04:06:25.213Z,20.42
2022-08-29T04:08:53.357Z,20.47
2022-08-29T04:11:25.045Z,20.50
2022-08-29T04:13:53.898Z,20.58
2022-08-29T04:16:30.945Z,20.58
2022-08-29T04:19:00.079Z,20.61
2022-08-29T04:21:28.367Z,20.58
2022-08-29T04:23:56.585Z,20.60
2022-08-29T04:26:36.746Z,20.64
2022-08-29T04:29:08.565Z,20.68
2022-08-29T04:31:38.013Z,20.68
2022-08-29T04:34:07.615Z,20.76
2022-08-29T04:36:37.714Z,20.86
2022-08-29T04:39:06.637Z,20.83
2022-08-29T04:41:35.679Z,20.77
2022-08-29T04:44:05.390Z,20.74
2022-08-29T04:46:33.572Z,20.71
2022-08-29T04:49:04.456Z,20.65
2022-08-29T04:51:35.712Z,20.69
2022-08-29T04:54:05.090Z,20.69
2022-08-29T04:56:34.653Z,20.69
2022-08-29T04:59:03.510Z,20.71
2022-08-29T05:01:31.993Z,20.73
2022-08-29T05:04:00.043Z,20.81
2022-08-29T05:06:28.527Z,20.82
2022-08-29T05:08:58.967Z,20.75
2022-08-29T05:11:32.598Z,20.70
2022-08-29T05:14:00.859Z,20.74
2022-08-29T05:16:30.972Z,20.73
2022-08-29T05:18:59.855Z,20.83
2022-08-29T05:21:36.723Z,20.74
2022-08-29T05:24:07.421Z,20.72
2022-08-29T05:26:38.179Z,20.78
2022-08-29T05:29:08.560Z,20.81
2022-08-29T05:31:39.030Z,20.74
2022-08-29T05:34:31.863Z,20.67
2022-08-29T05:36:56.822Z,20.70
2022-08-29T05:39:24.689Z,20.68
2022-08-29T05:41:55.737Z,20.64
2022-08-29T05:44:24.646Z,20.57
2022-08-29T05:46:52.604Z,20.60
2022-08-29T05:49:21.394Z,20.62
2022-08-29T05:51:53.492Z,20.50
2022-08-29T05:54:22.790Z,20.57
2022-08-29T05:56:51.625Z,20.48
2022-08-29T05:59:19.955Z,20.42
2022-08-29T06:01:47.805Z,20.48
2022-08-29T06:04:15.794Z,20.45
2022-08-29T06:06:43.651Z,20.44
2022-08-29T06:09:12.667Z,20.54
2022-08-29T06:11:40.562Z,20.53
2022-08-29T06:14:08.475Z,20.54
2022-08-29T06:16:36.384Z,20.53
2022-08-29T06:19:04.285Z,20.58
2022-08-29T06:21:32.179Z,20.58
2022-08-29T06:24:00.411Z,20.53
2022-08-29T06:26:28.272Z,20.59
2022-08-29T06:28:56.191Z,20.68
2022-08-29T06:31:29.438Z,20.83
2022-08-29T06:34:00.298Z,20.91
2022-08-29T06:36:30.211Z,21.04
2022-08-29T06:39:00.300Z,21.21
2022-08-29T06:41:29.201Z,21.33
2022-08-29T06:43:57.445Z,21.31
2022-08-29T06:46:34.143Z,21.30
2022-08-29T06:49:04.450Z,21.33
2022-08-29T06:51:36.001Z,21.56
2022-08-29T06:54:07.208Z,21.76
2022-08-29T06:56:36.608Z,21.81
2022-08-29T06:59:09.398Z,21.93
2022-08-29T07:01:37.698Z,21.99
2022-08-29T07:04:05.605Z,22.06
2022-08-29T07:06:43.000Z,22.18
2022-08-29T07:09:11.554Z,22.19
2022-08-29T07:11:41.433Z,22.13
2022-08-29T07:14:11.274Z,22.09
2022-08-29T07:16:41.256Z,22.00
2022-08-29T07:19:11.044Z,21.90
2022-08-29T07:21:40.015Z,21.93
2022-08-29T07:24:08.418Z,22.05
2022-08-29T07:26:42.193Z,22.08
2022-08-29T07:29:14.773Z,22.17
2022-08-29T07:31:42.859Z,22.23
2022-08-29T07:34:11.399Z,22.24
2022-08-29T07:36:39.561Z,22.33
2022-08-29T07:39:11.696Z,22.31
2022-08-29T07:41:40.734Z,22.24
2022-08-29T07:44:09.470Z,22.25
2022-08-29T07:46:38.224Z,22.23
2022-08-29T07:49:07.278Z,22.12
2022-08-29T07:51:35.907Z,22.09
2022-08-29T07:54:04.750Z,21.91
2022-08-29T07:56:41.412Z,21.85
2022-08-29T07:59:09.867Z,21.84
2022-08-29T08:01:38.754Z,21.83
2022-08-29T08:04:11.325Z,21.84
2022-08-29T08:06:42.053Z,21.93
2022-08-29T08:09:11.424Z,21.97
2022-08-29T08:11:39.954Z,21.87
2022-08-29T08:14:08.835Z,21.85
2022-08-29T08:16:37.240Z,21.97
2022-08-29T08:19:06.118Z,22.13
2022-08-29T08:21:34.569Z,22.15
2022-08-29T08:24:03.797Z,22.16
2022-08-29T08:26:31.737Z,22.10
2022-08-29T08:28:59.952Z,22.14
2022-08-29T08:31:28.187Z,22.44
2022-08-29T08:33:56.594Z,22.66
2022-08-29T08:36:28.789Z,22.95
2022-08-29T08:38:59.556Z,23.17
2022-08-29T08:41:33.516Z,23.26
2022-08-29T08:44:07.380Z,23.40
2022-08-29T08:46:42.206Z,23.49
2022-08-29T08:49:19.026Z,23.54
2022-08-29T08:51:53.755Z,23.39
2022-08-29T08:54:27.717Z,23.27
2022-08-29T08:57:06.651Z,23.15
2022-08-29T08:59:43.681Z,22.90
2022-08-29T09:02:36.728Z,22.71
2022-08-29T09:05:14.840Z,22.52
2022-08-29T09:07:48.556Z,22.26
2022-08-29T09:10:38.938Z,22.28
2022-08-29T09:13:28.496Z,22.72
2022-08-29T09:16:01.155Z,22.86
2022-08-29T09:18:40.535Z,22.77
2022-08-29T09:21:40.196Z,22.74
2022-08-29T09:24:16.515Z,22.81
2022-08-29T09:26:44.515Z,23.05
2022-08-29T09:29:14.204Z,23.42
2022-08-29T09:31:42.315Z,24.62
2022-08-29T09:34:15.662Z,25.76
2022-08-29T09:36:52.539Z,26.82
2022-08-29T09:39:26.617Z,26.49
2022-08-29T09:42:14.635Z,25.63
2022-08-29T09:44:53.671Z,25.18
2022-08-29T09:47:24.921Z,24.98
2022-08-29T09:50:07.465Z,24.56
2022-08-29T09:52:41.742Z,24.68
2022-08-29T09:55:28.362Z,25.00
2022-08-29T09:58:05.270Z,24.77
2022-08-29T10:00:38.001Z,24.60
2022-08-29T10:03:11.012Z,24.08
2022-08-29T10:05:46.379Z,23.84
2022-08-29T10:08:54.855Z,24.30
2022-08-29T10:11:48.732Z,25.92
2022-08-29T10:15:04.834Z,25.44
2022-08-29T10:17:58.417Z,25.00
2022-08-29T10:20:44.614Z,24.32
2022-08-29T10:23:35.482Z,24.15
2022-08-29T10:26:10.335Z,24.08
2022-08-29T10:28:47.005Z,24.60
2022-08-29T10:31:26.502Z,26.96
2022-08-29T10:34:29.460Z,28.85
2022-08-29T10:37:03.316Z,30.19
2022-08-29T10:39:50.877Z,29.47
2022-08-29T10:42:25.734Z,27.89
2022-08-29T10:45:14.445Z,27.06
2022-08-29T10:47:52.447Z,28.11
2022-08-29T10:50:48.298Z,27.87
2022-08-29T10:53:27.917Z,27.31
2022-08-29T10:56:04.498Z,28.50
2022-08-29T10:58:47.187Z,29.47
2022-08-29T11:01:22.474Z,29.32
2022-08-29T11:04:06.357Z,29.44
2022-08-29T11:06:47.446Z,29.93
2022-08-29T11:09:24.596Z,30.51
2022-08-29T11:12:17.415Z,31.64
2022-08-29T11:14:59.995Z,33.55
2022-08-29T11:17:34.863Z,34.25
2022-08-29T11:20:11.639Z,33.18
2022-08-29T11:22:46.832Z,33.22
2022-08-29T11:25:20.296Z,34.12
2022-08-29T11:28:10.749Z,35.52
2022-08-29T11:30:59.836Z,36.21
2022-08-29T11:33:57.240Z,34.92
2022-08-29T11:36:28.301Z,34.53
2022-08-29T11:39:23.812Z,33.94
2022-08-29T11:41:58.543Z,31.29
2022-08-29T11:44:33.837Z,31.54
2022-08-29T11:47:30.569Z,32.00
2022-08-29T11:50:27.112Z,33.21
2022-08-29T11:53:08.278Z,33.71
2022-08-29T11:55:37.876Z,34.22
2022-08-29T11:58:29.116Z,34.13
2022-08-29T12:00:58.566Z,33.89
2022-08-29T12:03:47.101Z,34.03
2022-08-29T12:06:37.219Z,33.78
2022-08-29T12:09:13.316Z,32.76
2022-08-29T12:12:02.656Z,32.85
2022-08-29T12:14:37.710Z,33.78
2022-08-29T12:17:16.721Z,33.87
2022-08-29T12:19:49.928Z,33.62
2022-08-29T12:22:47.110Z,33.09
2022-08-29T12:26:09.875Z,32.73
2022-08-29T12:29:19.558Z,33.65
2022-08-29T12:32:18.107Z,34.87
2022-08-29T12:34:47.389Z,32.73
2022-08-29T12:37:56.538Z,32.10
2022-08-29T12:41:06.156Z,32.21
2022-08-29T12:43:44.329Z,32.69
2022-08-29T12:46:24.235Z,34.01
2022-08-29T12:49:23.691Z,34.35
2022-08-29T12:51:58.785Z,32.72
2022-08-29T12:54:33.441Z,32.62
2022-08-29T12:57:02.753Z,32.14
2022-08-29T12:59:30.735Z,32.79
2022-08-29T13:01:59.553Z,32.78
2022-08-29T13:04:35.378Z,32.92
2022-08-29T13:07:06.930Z,33.03
2022-08-29T13:09:43.204Z,33.48
2022-08-29T13:12:11.046Z,32.92
2022-08-29T13:14:57.342Z,32.43
2022-08-29T13:17:34.886Z,31.12
2022-08-29T13:20:40.432Z,32.00
2022-08-29T13:23:28.056Z,32.72
2022-08-29T13:25:59.150Z,31.88
2022-08-29T13:28:41.352Z,31.39
2022-08-29T13:31:12.113Z,32.50
2022-08-29T13:34:08.785Z,31.49
2022-08-29T13:37:01.398Z,30.14
2022-08-29T13:39:41.057Z,30.47
2022-08-29T13:42:20.538Z,30.58
2022-08-29T13:45:07.568Z,30.12
2022-08-29T13:47:51.148Z,30.76
2022-08-29T13:50:19.166Z,31.26
2022-08-29T13:52:50.945Z,32.03
2022-08-29T13:55:19.333Z,33.25
2022-08-29T13:57:50.962Z,34.39
2022-08-29T14:00:31.941Z,34.59
2022-08-29T14:03:01.629Z,33.29
2022-08-29T14:05:29.716Z,31.10
2022-08-29T14:07:57.667Z,30.26
2022-08-29T14:10:25.623Z,30.32
2022-08-29T14:12:53.596Z,30.33
2022-08-29T14:15:21.515Z,30.99
2022-08-29T14:17:49.731Z,31.40
2022-08-29T14:20:18.971Z,31.81
2022-08-29T14:22:47.620Z,31.94
2022-08-29T14:25:18.146Z,33.43
2022-08-29T14:27:47.796Z,35.59
2022-08-29T14:30:20.293Z,37.37
2022-08-29T14:32:48.324Z,38.41
2022-08-29T14:35:26.740Z,37.67
2022-08-29T14:38:01.318Z,37.60
2022-08-29T14:40:32.738Z,37.91
2022-08-29T14:43:02.866Z,36.27
2022-08-29T14:45:32.416Z,35.93
2022-08-29T14:48:02.160Z,36.33
2022-08-29T14:50:30.301Z,37.06
2022-08-29T14:52:58.351Z,36.94
2022-08-29T14:55:26.359Z,37.99
2022-08-29T14:57:54.225Z,39.33
2022-08-29T15:00:27.246Z,38.75
2022-08-29T15:02:55.416Z,39.77
2022-08-29T15:05:24.215Z,40.03
2022-08-29T15:07:52.285Z,40.99
2022-08-29T15:10:23.485Z,39.76
2022-08-29T15:12:51.874Z,37.98
2022-08-29T15:15:29.367Z,38.23
2022-08-29T15:18:05.436Z,37.72
2022-08-29T15:20:37.317Z,36.51
2022-08-29T15:23:06.701Z,36.52
2022-08-29T15:25:35.125Z,36.50
2022-08-29T15:28:03.749Z,37.30
2022-08-29T15:30:32.445Z,38.01
2022-08-29T15:33:00.288Z,36.80
2022-08-29T15:35:28.328Z,36.06
2022-08-29T15:37:56.599Z,36.05
2022-08-29T15:40:24.606Z,36.28
2022-08-29T15:42:52.450Z,37.10
2022-08-29T15:45:22.466Z,38.39
2022-08-29T15:47:54.106Z,38.47
2022-08-29T15:50:23.817Z,36.97
2022-08-29T15:52:51.945Z,36.68
2022-08-29T15:55:20.340Z,35.87
2022-08-29T15:57:52.315Z,34.19
2022-08-29T16:00:30.168Z,34.65
2022-08-29T16:03:03.058Z,35.66
2022-08-29T16:05:32.756Z,35.56
2022-08-29T16:08:01.294Z,35.03
2022-08-29T16:10:30.507Z,34.55
2022-08-29T16:12:59.005Z,33.89
2022-08-29T16:15:29.043Z,33.61
2022-08-29T16:17:59.726Z,33.70
2022-08-29T16:20:28.888Z,33.32
2022-08-29T16:22:56.958Z,33.65
2022-08-29T16:25:26.204Z,34.11
2022-08-29T16:27:55.487Z,33.88
2022-08-29T16:30:23.752Z,33.66
2022-08-29T16:32:51.811Z,33.63
2022-08-29T16:35:20.238Z,32.63
2022-08-29T16:38:00.376Z,31.34
2022-08-29T16:40:32.453Z,28.99
2022-08-29T16:43:01.984Z,27.61
2022-08-29T16:45:30.797Z,26.89
2022-08-29T16:47:59.993Z,26.22
2022-08-29T16:50:29.515Z,25.81
2022-08-29T16:52:57.804Z,25.41
2022-08-29T16:55:26.224Z,25.22
2022-08-29T16:58:12.924Z,24.91
2022-08-29T17:00:41.404Z,24.80
2022-08-29T17:03:09.298Z,24.66
2022-08-29T17:05:37.775Z,24.47
2022-08-29T17:08:05.671Z,24.36
2022-08-29T17:10:33.620Z,24.27
2022-08-29T17:13:01.637Z,24.12
2022-08-29T17:15:29.534Z,24.03
2022-08-29T17:17:57.425Z,23.90
2022-08-29T17:20:25.412Z,23.77
2022-08-29T17:22:54.662Z,23.69
2022-08-29T17:25:23.300Z,23.72
2022-08-29T17:28:14.069Z,23.60
2022-08-29T17:30:40.643Z,23.50
2022-08-29T17:33:11.007Z,23.51
2022-08-29T17:35:38.917Z,23.37
2022-08-29T17:38:06.888Z,23.27
2022-08-29T17:40:36.855Z,23.13
2022-08-29T17:43:04.965Z,23.06
2022-08-29T17:45:33.188Z,23.05
2022-08-29T17:48:01.555Z,22.99
2022-08-29T17:50:29.519Z,22.93
2022-08-29T17:52:58.195Z,22.78
2022-08-29T17:55:27.574Z,22.73
2022-08-29T17:57:59.170Z,22.72
2022-08-29T18:00:27.437Z,22.62
2022-08-29T18:02:55.447Z,22.60
2022-08-29T18:05:23.876Z,22.54
2022-08-29T18:07:52.037Z,22.49
2022-08-29T18:10:23.448Z,22.47
2022-08-29T18:12:51.371Z,22.40
2022-08-29T18:15:19.325Z,22.33
2022-08-29T18:17:47.349Z,22.30
2022-08-29T18:20:19.544Z,22.32
2022-08-29T18:22:50.356Z,22.33
2022-08-29T18:25:22.740Z,22.28
2022-08-29T18:27:50.992Z,22.21
2022-08-29T18:30:19.319Z,22.32
2022-08-29T18:32:47.302Z,22.33
2022-08-29T18:35:16.121Z,22.32
2022-08-29T18:37:44.125Z,22.25
2022-08-29T18:40:12.069Z,22.23
2022-08-29T18:42:41.433Z,22.13
2022-08-29T18:45:10.295Z,22.09
2022-08-29T18:47:38.306Z,22.03
2022-08-29T18:50:25.473Z,21.99
2022-08-29T18:52:55.607Z,22.05
2022-08-29T18:55:24.052Z,21.97
2022-08-29T18:57:54.086Z,21.89
2022-08-29T19:00:25.166Z,22.07
2022-08-29T19:02:54.795Z,22.06
2022-08-29T19:05:24.778Z,21.92
2022-08-29T19:07:54.891Z,22.02
2022-08-29T19:10:23.745Z,22.07
2022-08-29T19:12:53.553Z,21.98
2022-08-29T19:15:24.649Z,21.90
2022-08-29T19:17:53.729Z,21.84
2022-08-29T19:20:43.487Z,21.85
2022-08-29T19:23:12.250Z,21.75
2022-08-29T19:25:41.229Z,21.83
2022-08-29T19:28:10.775Z,21.74
2022-08-29T19:30:39.425Z,21.69
2022-08-29T19:33:09.570Z,21.69
2022-08-29T19:35:38.974Z,21.61
2022-08-29T19:38:07.837Z,21.65
2022-08-29T19:40:39.341Z,21.65
2022-08-29T19:43:13.714Z,21.59
2022-08-29T19:45:43.515Z,21.58
2022-08-29T19:48:15.082Z,21.61
2022-08-29T19:50:47.735Z,21.54
2022-08-29T19:53:24.694Z,21.42
2022-08-29T19:55:56.506Z,21.44
2022-08-29T19:58:31.925Z,21.40
2022-08-29T20:01:06.964Z,21.33
2022-08-29T20:03:39.062Z,21.29
2022-08-29T20:06:08.793Z,21.30
2022-08-29T20:08:42.778Z,21.26
2022-08-29T20:11:18.302Z,21.27
2022-08-29T20:13:50.656Z,21.15
2022-08-29T20:16:23.879Z,21.08
2022-08-29T20:18:53.295Z,21.05
2022-08-29T20:21:23.768Z,21.01
2022-08-29T20:23:58.032Z,21.01
2022-08-29T20:26:31.664Z,21.04
2022-08-29T20:29:01.267Z,21.05
2022-08-29T20:31:29.575Z,21.00
2022-08-29T20:33:57.885Z,20.85
2022-08-29T20:36:44.659Z,20.99
2022-08-29T20:39:16.577Z,20.90
2022-08-29T20:41:51.535Z,20.85
2022-08-29T20:44:20.593Z,20.84
2022-08-29T20:46:49.982Z,20.64
2022-08-29T20:49:23.255Z,20.62
2022-08-29T20:51:52.783Z,20.69
2022-08-29T20:54:23.814Z,20.54
2022-08-29T20:56:53.719Z,20.58
2022-08-29T20:59:26.300Z,20.50
2022-08-29T21:01:55.921Z,20.45
2022-08-29T21:04:43.068Z,20.42
2022-08-29T21:07:14.041Z,20.30
2022-08-29T21:09:44.729Z,20.26
2022-08-29T21:12:14.459Z,20.25
2022-08-29T21:14:43.195Z,20.23
2022-08-29T21:17:13.037Z,20.15
2022-08-29T21:19:41.926Z,20.12
2022-08-29T21:22:12.748Z,19.99
2022-08-29T21:24:41.354Z,20.03
2022-08-29T21:27:09.955Z,20.03
2022-08-29T21:29:38.057Z,20.00
2022-08-29T21:32:05.975Z,20.02
2022-08-29T21:34:33.921Z,19.96
2022-08-29T21:37:01.858Z,19.89
2022-08-29T21:39:30.841Z,19.73
2022-08-29T21:42:02.425Z,19.72
2022-08-29T21:44:31.814Z,19.70
2022-08-29T21:47:00.248Z,19.74
2022-08-29T21:49:30.510Z,19.76
2022-08-29T21:51:59.678Z,19.76
2022-08-29T21:54:27.963Z,19.67
2022-08-29T21:56:55.958Z,19.66
2022-08-29T21:59:25.286Z,19.80
2022-08-29T22:01:55.068Z,19.75
2022-08-29T22:04:28.964Z,19.67
2022-08-29T22:06:59.643Z,19.75
2022-08-29T22:09:29.540Z,19.63
2022-08-29T22:11:58.759Z,19.61
2022-08-29T22:14:46.770Z,19.59
2022-08-29T22:17:15.842Z,19.57
2022-08-29T22:19:43.866Z,19.53
2022-08-29T22:22:11.880Z,19.50
2022-08-29T22:24:39.768Z,19.55
2022-08-29T22:27:08.255Z,19.47
2022-08-29T22:29:37.569Z,19.40
2022-08-29T22:32:05.660Z,19.35
2022-08-29T22:34:34.019Z,19.37
2022-08-29T22:37:02.238Z,19.25
2022-08-29T22:39:30.164Z,19.30
2022-08-29T22:41:58.218Z,19.25
2022-08-29T22:47:15.165Z,19.27
2022-08-29T22:49:43.031Z,19.29
2022-08-29T22:52:11.695Z,19.19
2022-08-29T22:54:40.455Z,19.26
2022-08-29T22:57:14.282Z,19.18
2022-08-29T22:59:44.085Z,19.13
2022-08-29T23:02:13.367Z,19.21
2022-08-29T23:04:41.715Z,19.10
2022-08-29T23:07:11.838Z,19.12
2022-08-29T23:09:43.082Z,18.99
2022-08-29T23:12:13.122Z,19.01
2022-08-29T23:14:43.859Z,18.95
2022-08-29T23:17:12.364Z,19.00
2022-08-29T23:19:41.020Z,18.98
2022-08-29T23:22:11.244Z,18.91
2022-08-29T23:24:41.349Z,18.95
2022-08-29T23:27:21.887Z,18.90
2022-08-29T23:29:51.774Z,18.79
2022-08-29T23:32:19.778Z,18.85
2022-08-29T23:34:47.651Z,18.72
2022-08-29T23:37:15.542Z,18.72
2022-08-29T23:39:43.435Z,18.73
2022-08-29T23:42:11.334Z,18.75
2022-08-29T23:44:39.336Z,18.74
2022-08-29T23:47:08.609Z,18.69
2022-08-29T23:49:36.503Z,18.66
2022-08-29T23:52:05.514Z,18.77
2022-08-29T23:54:36.723Z,18.78
2022-08-29T23:57:05.038Z,18.69
2022-08-29T23:59:52.497Z,18.58
